sensor_id;sensor_type;location;lat;lon;timestamp;pressure;altitude;pressure_sealevel;temperature
79089;BMP280;68489;50.286;9.452;2024-03-29T00:00:52;95512.84;;;4.39
79089;BMP280;68489;50.286;9.452;2024-03-29T00:03:17;95504.94;;;4.39
79089;BMP280;68489;50.286;9.452;2024-03-29T00:05:43;95502.66;;;4.59
79089;BMP280;68489;50.286;9.452;2024-03-29T00:08:08;95501.34;;;4.54
79089;BMP280;68489;50.286;9.452;2024-03-29T00:10:33;95498.81;;;4.51
79089;BMP280;68489;50.286;9.452;2024-03-29T00:12:59;95502.94;;;4.52
79089;BMP280;68489;50.286;9.452;2024-03-29T00:15:24;95487.75;;;4.56
79089;BMP280;68489;50.286;9.452;2024-03-29T00:17:50;95490.50;;;4.52
79089;BMP280;68489;50.286;9.452;2024-03-29T00:20:16;95482.31;;;4.50
79089;BMP280;68489;50.286;9.452;2024-03-29T00:22:41;95464.94;;;4.53
79089;BMP280;68489;50.286;9.452;2024-03-29T00:25:07;95471.63;;;4.45
79089;BMP280;68489;50.286;9.452;2024-03-29T00:27:32;95471.63;;;4.45
79089;BMP280;68489;50.286;9.452;2024-03-29T00:29:57;95463.28;;;4.37
79089;BMP280;68489;50.286;9.452;2024-03-29T00:32:23;95454.81;;;4.33
79089;BMP280;68489;50.286;9.452;2024-03-29T00:34:52;95450.97;;;4.25
79089;BMP280;68489;50.286;9.452;2024-03-29T00:37:19;95454.31;;;4.25
79089;BMP280;68489;50.286;9.452;2024-03-29T00:39:44;95452.59;;;4.31
79089;BMP280;68489;50.286;9.452;2024-03-29T00:42:10;95433.63;;;4.37
79089;BMP280;68489;50.286;9.452;2024-03-29T00:44:38;95447.53;;;4.46
79089;BMP280;68489;50.286;9.452;2024-03-29T00:47:06;95440.94;;;4.51
79089;BMP280;68489;50.286;9.452;2024-03-29T00:49:32;95454.41;;;4.53
79089;BMP280;68489;50.286;9.452;2024-03-29T00:51:57;95455.69;;;4.48
79089;BMP280;68489;50.286;9.452;2024-03-29T00:54:22;95452.94;;;4.52
79089;BMP280;68489;50.286;9.452;2024-03-29T00:56:49;95440.81;;;4.73
79089;BMP280;68489;50.286;9.452;2024-03-29T00:59:14;95441.69;;;4.79
79089;BMP280;68489;50.286;9.452;2024-03-29T01:01:40;95423.44;;;4.94
79089;BMP280;68489;50.286;9.452;2024-03-29T01:04:05;95429.28;;;5.07
79089;BMP280;68489;50.286;9.452;2024-03-29T01:06:30;95435.25;;;5.17
79089;BMP280;68489;50.286;9.452;2024-03-29T01:08:55;95441.69;;;5.25
79089;BMP280;68489;50.286;9.452;2024-03-29T01:11:21;95428.06;;;5.36
79089;BMP280;68489;50.286;9.452;2024-03-29T01:13:47;95441.53;;;5.38
79089;BMP280;68489;50.286;9.452;2024-03-29T01:16:12;95446.66;;;5.41
79089;BMP280;68489;50.286;9.452;2024-03-29T01:18:37;95443.84;;;5.45
79089;BMP280;68489;50.286;9.452;2024-03-29T01:21:04;95445.44;;;5.51
79089;BMP280;68489;50.286;9.452;2024-03-29T01:23:29;95449.13;;;5.54
79089;BMP280;68489;50.286;9.452;2024-03-29T01:25:54;95433.97;;;5.64
79089;BMP280;68489;50.286;9.452;2024-03-29T01:28:20;95451.13;;;5.68
79089;BMP280;68489;50.286;9.452;2024-03-29T01:30:54;95441.13;;;5.72
79089;BMP280;68489;50.286;9.452;2024-03-29T01:33:26;95437.19;;;5.77
79089;BMP280;68489;50.286;9.452;2024-03-29T01:35:52;95435.97;;;5.78
79089;BMP280;68489;50.286;9.452;2024-03-29T01:38:18;95452.22;;;5.86
79089;BMP280;68489;50.286;9.452;2024-03-29T01:40:43;95442.41;;;5.86
79089;BMP280;68489;50.286;9.452;2024-03-29T01:43:08;95429.81;;;5.90
79089;BMP280;68489;50.286;9.452;2024-03-29T01:45:35;95420.66;;;6.00
79089;BMP280;68489;50.286;9.452;2024-03-29T01:48:03;95434.44;;;6.05
79089;BMP280;68489;50.286;9.452;2024-03-29T01:50:29;95425.00;;;6.13
79089;BMP280;68489;50.286;9.452;2024-03-29T01:52:55;95436.88;;;6.08
79089;BMP280;68489;50.286;9.452;2024-03-29T01:55:20;95444.53;;;6.06
79089;BMP280;68489;50.286;9.452;2024-03-29T01:57:46;95424.72;;;6.11
79089;BMP280;68489;50.286;9.452;2024-03-29T02:00:11;95405.81;;;6.12
79089;BMP280;68489;50.286;9.452;2024-03-29T02:02:37;95393.63;;;6.15
79089;BMP280;68489;50.286;9.452;2024-03-29T02:05:03;95425.13;;;6.18
79089;BMP280;68489;50.286;9.452;2024-03-29T02:07:29;95412.31;;;6.26
79089;BMP280;68489;50.286;9.452;2024-03-29T02:09:55;95404.25;;;6.30
79089;BMP280;68489;50.286;9.452;2024-03-29T02:12:20;95389.22;;;6.36
79089;BMP280;68489;50.286;9.452;2024-03-29T02:14:45;95391.25;;;6.41
79089;BMP280;68489;50.286;9.452;2024-03-29T02:17:11;95381.41;;;6.41
79089;BMP280;68489;50.286;9.452;2024-03-29T02:19:36;95371.88;;;6.44
79089;BMP280;68489;50.286;9.452;2024-03-29T02:22:03;95366.00;;;6.49
79089;BMP280;68489;50.286;9.452;2024-03-29T02:24:30;95348.41;;;6.46
79089;BMP280;68489;50.286;9.452;2024-03-29T02:26:56;95352.06;;;6.49
79089;BMP280;68489;50.286;9.452;2024-03-29T02:29:23;95357.34;;;6.49
79089;BMP280;68489;50.286;9.452;2024-03-29T02:31:48;95342.84;;;6.44
79089;BMP280;68489;50.286;9.452;2024-03-29T02:34:13;95328.94;;;6.43
79089;BMP280;68489;50.286;9.452;2024-03-29T02:36:39;95355.03;;;6.41
79089;BMP280;68489;50.286;9.452;2024-03-29T02:39:04;95365.16;;;6.43
79089;BMP280;68489;50.286;9.452;2024-03-29T02:41:30;95358.41;;;6.42
79089;BMP280;68489;50.286;9.452;2024-03-29T02:43:56;95359.28;;;6.39
79089;BMP280;68489;50.286;9.452;2024-03-29T02:46:21;95363.31;;;6.34
79089;BMP280;68489;50.286;9.452;2024-03-29T02:48:47;95373.59;;;6.32
79089;BMP280;68489;50.286;9.452;2024-03-29T02:51:12;95374.03;;;6.31
79089;BMP280;68489;50.286;9.452;2024-03-29T02:53:37;95375.66;;;6.28
79089;BMP280;68489;50.286;9.452;2024-03-29T02:56:04;95371.84;;;6.29
79089;BMP280;68489;50.286;9.452;2024-03-29T02:58:29;95387.38;;;6.27
79089;BMP280;68489;50.286;9.452;2024-03-29T03:00:55;95387.38;;;6.27
79089;BMP280;68489;50.286;9.452;2024-03-29T03:03:26;95396.50;;;6.26
79089;BMP280;68489;50.286;9.452;2024-03-29T03:05:51;95390.19;;;6.23
79089;BMP280;68489;50.286;9.452;2024-03-29T03:08:19;95400.47;;;6.21
79089;BMP280;68489;50.286;9.452;2024-03-29T03:11:04;95397.13;;;6.21
79089;BMP280;68489;50.286;9.452;2024-03-29T03:13:30;95402.09;;;6.19
79089;BMP280;68489;50.286;9.452;2024-03-29T03:15:56;95403.09;;;6.21
79089;BMP280;68489;50.286;9.452;2024-03-29T03:18:21;95393.56;;;6.24
79089;BMP280;68489;50.286;9.452;2024-03-29T03:20:51;95411.00;;;6.21
79089;BMP280;68489;50.286;9.452;2024-03-29T03:23:16;95418.66;;;6.19
79089;BMP280;68489;50.286;9.452;2024-03-29T03:25:42;95432.44;;;6.14
79089;BMP280;68489;50.286;9.452;2024-03-29T03:28:07;95431.28;;;6.15
79089;BMP280;68489;50.286;9.452;2024-03-29T03:30:32;95435.38;;;6.16
79089;BMP280;68489;50.286;9.452;2024-03-29T03:32:58;95417.66;;;6.17
79089;BMP280;68489;50.286;9.452;2024-03-29T03:35:23;95432.03;;;6.16
79089;BMP280;68489;50.286;9.452;2024-03-29T03:37:48;95441.38;;;6.17
79089;BMP280;68489;50.286;9.452;2024-03-29T03:40:14;95441.56;;;6.13
79089;BMP280;68489;50.286;9.452;2024-03-29T03:42:39;95441.00;;;6.09
79089;BMP280;68489;50.286;9.452;2024-03-29T03:45:05;95448.06;;;6.03
79089;BMP280;68489;50.286;9.452;2024-03-29T03:47:31;95445.56;;;5.99
79089;BMP280;68489;50.286;9.452;2024-03-29T03:49:56;95445.19;;;5.92
79089;BMP280;68489;50.286;9.452;2024-03-29T03:52:21;95445.03;;;5.86
79089;BMP280;68489;50.286;9.452;2024-03-29T03:54:47;95440.66;;;5.83
79089;BMP280;68489;50.286;9.452;2024-03-29T03:57:12;95450.78;;;5.75
79089;BMP280;68489;50.286;9.452;2024-03-29T03:59:38;95431.91;;;5.77
79089;BMP280;68489;50.286;9.452;2024-03-29T04:02:03;95432.63;;;5.78
79089;BMP280;68489;50.286;9.452;2024-03-29T04:04:28;95422.25;;;5.74
79089;BMP280;68489;50.286;9.452;2024-03-29T04:06:54;95411.25;;;5.75
79089;BMP280;68489;50.286;9.452;2024-03-29T04:09:19;95406.44;;;5.74
79089;BMP280;68489;50.286;9.452;2024-03-29T04:11:44;95433.53;;;5.74
79089;BMP280;68489;50.286;9.452;2024-03-29T04:14:10;95431.91;;;5.77
79089;BMP280;68489;50.286;9.452;2024-03-29T04:16:35;95440.22;;;5.85
79089;BMP280;68489;50.286;9.452;2024-03-29T04:19:00;95431.84;;;5.86
79089;BMP280;68489;50.286;9.452;2024-03-29T04:21:26;95435.22;;;5.87
79089;BMP280;68489;50.286;9.452;2024-03-29T04:23:51;95430.97;;;5.89
79089;BMP280;68489;50.286;9.452;2024-03-29T04:26:16;95441.84;;;5.82
79089;BMP280;68489;50.286;9.452;2024-03-29T04:28:42;95435.53;;;5.80
79089;BMP280;68489;50.286;9.452;2024-03-29T04:31:07;95447.25;;;5.79
79089;BMP280;68489;50.286;9.452;2024-03-29T04:33:33;95440.81;;;5.80
79089;BMP280;68489;50.286;9.452;2024-03-29T04:36:00;95450.78;;;5.75
79089;BMP280;68489;50.286;9.452;2024-03-29T04:38:26;95455.34;;;5.75
79089;BMP280;68489;50.286;9.452;2024-03-29T04:40:53;95450.38;;;5.77
79089;BMP280;68489;50.286;9.452;2024-03-29T04:43:21;95458.81;;;5.81
79089;BMP280;68489;50.286;9.452;2024-03-29T04:45:47;95464.28;;;5.78
79089;BMP280;68489;50.286;9.452;2024-03-29T04:48:13;95466.63;;;5.75
79089;BMP280;68489;50.286;9.452;2024-03-29T04:50:39;95473.06;;;5.74
79089;BMP280;68489;50.286;9.452;2024-03-29T04:53:05;95459.28;;;5.70
79089;BMP280;68489;50.286;9.452;2024-03-29T04:55:30;95441.31;;;5.69
79089;BMP280;68489;50.286;9.452;2024-03-29T04:57:56;95426.38;;;5.66
79089;BMP280;68489;50.286;9.452;2024-03-29T05:00:21;95400.63;;;5.61
79089;BMP280;68489;50.286;9.452;2024-03-29T05:02:46;95412.78;;;5.58
79089;BMP280;68489;50.286;9.452;2024-03-29T05:05:12;95417.03;;;5.56
79089;BMP280;68489;50.286;9.452;2024-03-29T05:07:37;95406.94;;;5.54
79089;BMP280;68489;50.286;9.452;2024-03-29T05:10:03;95387.91;;;5.50
79089;BMP280;68489;50.286;9.452;2024-03-29T05:12:37;95399.63;;;5.40
79089;BMP280;68489;50.286;9.452;2024-03-29T05:15:03;95393.78;;;5.45
79089;BMP280;68489;50.286;9.452;2024-03-29T05:17:28;95403.41;;;5.48
79089;BMP280;68489;50.286;9.452;2024-03-29T05:19:54;95409.88;;;5.47
79089;BMP280;68489;50.286;9.452;2024-03-29T05:22:19;95413.53;;;5.49
79089;BMP280;68489;50.286;9.452;2024-03-29T05:24:45;95405.91;;;5.51
79089;BMP280;68489;50.286;9.452;2024-03-29T05:27:11;95396.81;;;5.52
79089;BMP280;68489;50.286;9.452;2024-03-29T05:29:37;95394.50;;;5.55
79089;BMP280;68489;50.286;9.452;2024-03-29T05:32:03;95392.13;;;5.57
79089;BMP280;68489;50.286;9.452;2024-03-29T05:34:29;95387.59;;;5.57
79089;BMP280;68489;50.286;9.452;2024-03-29T05:36:54;95399.19;;;5.60
79089;BMP280;68489;50.286;9.452;2024-03-29T05:39:20;95398.72;;;5.61
79089;BMP280;68489;50.286;9.452;2024-03-29T05:41:45;95394.44;;;5.64
79089;BMP280;68489;50.286;9.452;2024-03-29T05:44:10;95403.53;;;5.63
79089;BMP280;68489;50.286;9.452;2024-03-29T05:46:35;95409.53;;;5.63
79089;BMP280;68489;50.286;9.452;2024-03-29T05:49:02;95405.44;;;5.62
79089;BMP280;68489;50.286;9.452;2024-03-29T05:51:28;95410.44;;;5.60
79089;BMP280;68489;50.286;9.452;2024-03-29T05:53:53;95415.56;;;5.55
79089;BMP280;68489;50.286;9.452;2024-03-29T05:56:18;95427.28;;;5.53
79089;BMP280;68489;50.286;9.452;2024-03-29T05:58:43;95427.56;;;5.56
79089;BMP280;68489;50.286;9.452;2024-03-29T06:01:10;95426.13;;;5.55
79089;BMP280;68489;50.286;9.452;2024-03-29T06:03:35;95421.56;;;5.55
79089;BMP280;68489;50.286;9.452;2024-03-29T06:06:01;95441.78;;;5.49
79089;BMP280;68489;50.286;9.452;2024-03-29T06:08:26;95447.63;;;5.53
79089;BMP280;68489;50.286;9.452;2024-03-29T06:10:52;95448.09;;;5.51
79089;BMP280;68489;50.286;9.452;2024-03-29T06:13:17;95451.16;;;5.50
79089;BMP280;68489;50.286;9.452;2024-03-29T06:15:54;95444.41;;;5.58
79089;BMP280;68489;50.286;9.452;2024-03-29T06:18:38;95445.44;;;5.61
79089;BMP280;68489;50.286;9.452;2024-03-29T06:21:03;95454.06;;;5.61
79089;BMP280;68489;50.286;9.452;2024-03-29T06:23:28;95450.72;;;5.61
79089;BMP280;68489;50.286;9.452;2024-03-29T06:25:54;95456.41;;;5.59
79089;BMP280;68489;50.286;9.452;2024-03-29T06:28:19;95448.63;;;5.65
79089;BMP280;68489;50.286;9.452;2024-03-29T06:30:44;95455.66;;;5.68
79089;BMP280;68489;50.286;9.452;2024-03-29T06:33:10;95460.06;;;5.71
79089;BMP280;68489;50.286;9.452;2024-03-29T06:35:35;95461.66;;;5.78
79089;BMP280;68489;50.286;9.452;2024-03-29T06:38:02;95449.16;;;5.78
79089;BMP280;68489;50.286;9.452;2024-03-29T06:40:27;95458.09;;;5.81
79089;BMP280;68489;50.286;9.452;2024-03-29T06:42:52;95451.66;;;5.82
79089;BMP280;68489;50.286;9.452;2024-03-29T06:45:20;95462.63;;;5.80
79089;BMP280;68489;50.286;9.452;2024-03-29T06:47:45;95461.19;;;5.79
79089;BMP280;68489;50.286;9.452;2024-03-29T06:50:10;95455.91;;;5.79
79089;BMP280;68489;50.286;9.452;2024-03-29T06:52:36;95452.38;;;5.82
79089;BMP280;68489;50.286;9.452;2024-03-29T06:55:01;95456.47;;;5.83
79089;BMP280;68489;50.286;9.452;2024-03-29T06:57:26;95455.28;;;5.84
79089;BMP280;68489;50.286;9.452;2024-03-29T06:59:56;95464.09;;;5.90
79089;BMP280;68489;50.286;9.452;2024-03-29T07:02:21;95454.53;;;5.93
79089;BMP280;68489;50.286;9.452;2024-03-29T07:04:46;95465.34;;;5.95
79089;BMP280;68489;50.286;9.452;2024-03-29T07:07:12;95472.69;;;6.00
79089;BMP280;68489;50.286;9.452;2024-03-29T07:09:37;95470.63;;;6.04
79089;BMP280;68489;50.286;9.452;2024-03-29T07:12:02;95478.34;;;6.08
79089;BMP280;68489;50.286;9.452;2024-03-29T07:14:27;95481.13;;;6.13
79089;BMP280;68489;50.286;9.452;2024-03-29T07:16:54;95476.16;;;6.15
79089;BMP280;68489;50.286;9.452;2024-03-29T07:19:20;95475.97;;;6.19
79089;BMP280;68489;50.286;9.452;2024-03-29T07:21:46;95476.38;;;6.27
79089;BMP280;68489;50.286;9.452;2024-03-29T07:24:12;95464.94;;;6.30
79089;BMP280;68489;50.286;9.452;2024-03-29T07:26:37;95449.66;;;6.34
79089;BMP280;68489;50.286;9.452;2024-03-29T07:29:03;95461.63;;;6.44
79089;BMP280;68489;50.286;9.452;2024-03-29T07:31:30;95455.00;;;6.49
79089;BMP280;68489;50.286;9.452;2024-03-29T07:33:56;95464.34;;;6.50
79089;BMP280;68489;50.286;9.452;2024-03-29T07:36:21;95460.28;;;6.49
79089;BMP280;68489;50.286;9.452;2024-03-29T07:38:48;95455.25;;;6.51
79089;BMP280;68489;50.286;9.452;2024-03-29T07:41:13;95458.66;;;6.51
79089;BMP280;68489;50.286;9.452;2024-03-29T07:43:59;95452.72;;;6.56
79089;BMP280;68489;50.286;9.452;2024-03-29T07:46:29;95447.31;;;6.60
79089;BMP280;68489;50.286;9.452;2024-03-29T07:48:55;95459.41;;;6.66
79089;BMP280;68489;50.286;9.452;2024-03-29T07:51:21;95456.44;;;6.74
79089;BMP280;68489;50.286;9.452;2024-03-29T07:53:47;95451.59;;;6.72
79089;BMP280;68489;50.286;9.452;2024-03-29T07:56:12;95440.59;;;6.74
79089;BMP280;68489;50.286;9.452;2024-03-29T07:58:37;95434.69;;;6.79
79089;BMP280;68489;50.286;9.452;2024-03-29T08:01:03;95425.13;;;6.81
79089;BMP280;68489;50.286;9.452;2024-03-29T08:03:28;95429.06;;;6.86
79089;BMP280;68489;50.286;9.452;2024-03-29T08:06:00;95425.59;;;6.94
79089;BMP280;68489;50.286;9.452;2024-03-29T08:08:29;95419.69;;;7.00
79089;BMP280;68489;50.286;9.452;2024-03-29T08:10:55;95415.06;;;7.09
79089;BMP280;68489;50.286;9.452;2024-03-29T08:13:20;95412.69;;;7.11
79089;BMP280;68489;50.286;9.452;2024-03-29T08:15:47;95418.78;;;7.17
79089;BMP280;68489;50.286;9.452;2024-03-29T08:18:13;95414.69;;;7.16
79089;BMP280;68489;50.286;9.452;2024-03-29T08:20:38;95429.47;;;7.23
79089;BMP280;68489;50.286;9.452;2024-03-29T08:23:04;95419.34;;;7.22
79089;BMP280;68489;50.286;9.452;2024-03-29T08:25:29;95419.16;;;7.25
79089;BMP280;68489;50.286;9.452;2024-03-29T08:27:55;95418.25;;;7.28
79089;BMP280;68489;50.286;9.452;2024-03-29T08:30:25;95419.50;;;7.33
79089;BMP280;68489;50.286;9.452;2024-03-29T08:32:50;95419.22;;;7.31
79089;BMP280;68489;50.286;9.452;2024-03-29T08:35:17;95423.63;;;7.34
79089;BMP280;68489;50.286;9.452;2024-03-29T08:37:43;95421.06;;;7.39
79089;BMP280;68489;50.286;9.452;2024-03-29T08:40:09;95428.63;;;7.47
79089;BMP280;68489;50.286;9.452;2024-03-29T08:42:34;95429.88;;;7.51
79089;BMP280;68489;50.286;9.452;2024-03-29T08:45:02;95424.59;;;7.51
79089;BMP280;68489;50.286;9.452;2024-03-29T08:47:28;95422.50;;;7.55
79089;BMP280;68489;50.286;9.452;2024-03-29T08:49:53;95431.56;;;7.49
79089;BMP280;68489;50.286;9.452;2024-03-29T08:52:19;95438.25;;;7.50
79089;BMP280;68489;50.286;9.452;2024-03-29T08:54:44;95451.44;;;7.59
79089;BMP280;68489;50.286;9.452;2024-03-29T08:57:09;95438.66;;;7.57
79089;BMP280;68489;50.286;9.452;2024-03-29T08:59:35;95452.31;;;7.56
79089;BMP280;68489;50.286;9.452;2024-03-29T09:02:04;95450.66;;;7.58
79089;BMP280;68489;50.286;9.452;2024-03-29T09:04:31;95453.84;;;7.62
79089;BMP280;68489;50.286;9.452;2024-03-29T09:06:57;95451.50;;;7.64
79089;BMP280;68489;50.286;9.452;2024-03-29T09:09:22;95449.28;;;7.63
79089;BMP280;68489;50.286;9.452;2024-03-29T09:11:48;95442.72;;;7.73
79089;BMP280;68489;50.286;9.452;2024-03-29T09:14:13;95442.47;;;7.71
79089;BMP280;68489;50.286;9.452;2024-03-29T09:16:38;95454.13;;;7.79
79089;BMP280;68489;50.286;9.452;2024-03-29T09:19:05;95452.19;;;7.80
79089;BMP280;68489;50.286;9.452;2024-03-29T09:21:30;95456.09;;;7.84
79089;BMP280;68489;50.286;9.452;2024-03-29T09:23:56;95455.91;;;7.88
79089;BMP280;68489;50.286;9.452;2024-03-29T09:26:21;95461.03;;;7.91
79089;BMP280;68489;50.286;9.452;2024-03-29T09:28:46;95483.38;;;7.90
79089;BMP280;68489;50.286;9.452;2024-03-29T09:31:12;95490.78;;;7.86
79089;BMP280;68489;50.286;9.452;2024-03-29T09:33:37;95494.97;;;7.93
79089;BMP280;68489;50.286;9.452;2024-03-29T09:36:03;95512.75;;;7.93
79089;BMP280;68489;50.286;9.452;2024-03-29T09:38:28;95515.56;;;7.89
79089;BMP280;68489;50.286;9.452;2024-03-29T09:43:38;95513.75;;;7.95
79089;BMP280;68489;50.286;9.452;2024-03-29T09:46:04;95516.38;;;7.95
79089;BMP280;68489;50.286;9.452;2024-03-29T09:48:30;95515.56;;;8.04
79089;BMP280;68489;50.286;9.452;2024-03-29T09:51:05;95528.81;;;8.04
79089;BMP280;68489;50.286;9.452;2024-03-29T09:53:36;95534.81;;;8.04
79089;BMP280;68489;50.286;9.452;2024-03-29T09:56:05;95531.91;;;8.02
79089;BMP280;68489;50.286;9.452;2024-03-29T09:58:31;95539.56;;;8.00
79089;BMP280;68489;50.286;9.452;2024-03-29T10:00:57;95543.03;;;7.91
79089;BMP280;68489;50.286;9.452;2024-03-29T10:03:26;95547.06;;;7.87
79089;BMP280;68489;50.286;9.452;2024-03-29T10:05:56;95541.47;;;7.85
79089;BMP280;68489;50.286;9.452;2024-03-29T10:08:23;95542.59;;;7.78
79089;BMP280;68489;50.286;9.452;2024-03-29T10:10:49;95554.53;;;7.74
79089;BMP280;68489;50.286;9.452;2024-03-29T10:13:15;95545.69;;;7.77
79089;BMP280;68489;50.286;9.452;2024-03-29T10:15:40;95547.78;;;7.73
79089;BMP280;68489;50.286;9.452;2024-03-29T10:18:11;95547.00;;;7.81
79089;BMP280;68489;50.286;9.452;2024-03-29T10:20:36;95550.16;;;7.85
79089;BMP280;68489;50.286;9.452;2024-03-29T10:23:01;95543.56;;;7.96
79089;BMP280;68489;50.286;9.452;2024-03-29T10:25:31;95554.53;;;8.03
79089;BMP280;68489;50.286;9.452;2024-03-29T10:27:57;95546.88;;;8.05
79089;BMP280;68489;50.286;9.452;2024-03-29T10:30:24;95549.50;;;8.05
79089;BMP280;68489;50.286;9.452;2024-03-29T10:32:50;95559.16;;;8.08
79089;BMP280;68489;50.286;9.452;2024-03-29T10:35:15;95562.56;;;8.09
79089;BMP280;68489;50.286;9.452;2024-03-29T10:37:42;95560.72;;;8.15
79089;BMP280;68489;50.286;9.452;2024-03-29T10:40:09;95550.16;;;8.15
79089;BMP280;68489;50.286;9.452;2024-03-29T10:42:39;95557.31;;;8.29
79089;BMP280;68489;50.286;9.452;2024-03-29T10:45:07;95566.41;;;8.43
79089;BMP280;68489;50.286;9.452;2024-03-29T10:47:33;95570.22;;;8.57
79089;BMP280;68489;50.286;9.452;2024-03-29T10:49:59;95568.81;;;8.61
79089;BMP280;68489;50.286;9.452;2024-03-29T10:52:25;95569.34;;;8.65
79089;BMP280;68489;50.286;9.452;2024-03-29T10:54:52;95566.03;;;8.71
79089;BMP280;68489;50.286;9.452;2024-03-29T10:57:23;95556.72;;;8.75
79089;BMP280;68489;50.286;9.452;2024-03-29T11:00:05;95566.59;;;8.95
79089;BMP280;68489;50.286;9.452;2024-03-29T11:05:06;95564.25;;;9.23
79089;BMP280;68489;50.286;9.452;2024-03-29T11:07:38;95557.84;;;9.35
79089;BMP280;68489;50.286;9.452;2024-03-29T11:10:05;95554.94;;;9.33
79089;BMP280;68489;50.286;9.452;2024-03-29T11:12:37;95559.25;;;9.31
79089;BMP280;68489;50.286;9.452;2024-03-29T11:15:09;95560.88;;;9.23
79089;BMP280;68489;50.286;9.452;2024-03-29T11:17:41;95560.00;;;9.11
79089;BMP280;68489;50.286;9.452;2024-03-29T11:20:07;95554.44;;;9.09
79089;BMP280;68489;50.286;9.452;2024-03-29T11:22:33;95547.22;;;9.09
79089;BMP280;68489;50.286;9.452;2024-03-29T11:25:00;95552.59;;;9.15
79089;BMP280;68489;50.286;9.452;2024-03-29T11:27:26;95550.47;;;9.19
79089;BMP280;68489;50.286;9.452;2024-03-29T11:29:52;95548.66;;;9.31
79089;BMP280;68489;50.286;9.452;2024-03-29T11:32:37;95539.38;;;9.47
79089;BMP280;68489;50.286;9.452;2024-03-29T11:35:04;95538.09;;;9.62
79089;BMP280;68489;50.286;9.452;2024-03-29T11:37:30;95553.91;;;9.83
79089;BMP280;68489;50.286;9.452;2024-03-29T11:39:59;95543.00;;;10.07
79089;BMP280;68489;50.286;9.452;2024-03-29T11:42:35;95529.09;;;10.23
79089;BMP280;68489;50.286;9.452;2024-03-29T11:45:00;95541.22;;;10.30
79089;BMP280;68489;50.286;9.452;2024-03-29T11:47:26;95539.56;;;10.38
79089;BMP280;68489;50.286;9.452;2024-03-29T11:49:56;95529.41;;;10.42
79089;BMP280;68489;50.286;9.452;2024-03-29T11:52:22;95522.19;;;10.48
79089;BMP280;68489;50.286;9.452;2024-03-29T11:54:47;95522.69;;;10.47
79089;BMP280;68489;50.286;9.452;2024-03-29T11:57:12;95522.19;;;10.48
79089;BMP280;68489;50.286;9.452;2024-03-29T11:59:38;95517.91;;;10.56
79089;BMP280;68489;50.286;9.452;2024-03-29T12:02:04;95511.88;;;10.67
79089;BMP280;68489;50.286;9.452;2024-03-29T12:04:31;95490.41;;;10.76
79089;BMP280;68489;50.286;9.452;2024-03-29T12:06:57;95501.50;;;10.63
79089;BMP280;68489;50.286;9.452;2024-03-29T12:09:22;95498.13;;;10.69
79089;BMP280;68489;50.286;9.452;2024-03-29T12:11:47;95504.72;;;10.90
79089;BMP280;68489;50.286;9.452;2024-03-29T12:14:13;95515.16;;;11.05
79089;BMP280;68489;50.286;9.452;2024-03-29T12:16:46;95510.09;;;11.18
79089;BMP280;68489;50.286;9.452;2024-03-29T12:19:22;95510.56;;;11.28
79089;BMP280;68489;50.286;9.452;2024-03-29T12:21:48;95523.41;;;11.41
79089;BMP280;68489;50.286;9.452;2024-03-29T12:24:13;95527.97;;;11.40
79089;BMP280;68489;50.286;9.452;2024-03-29T12:26:39;95537.19;;;11.45
79089;BMP280;68489;50.286;9.452;2024-03-29T12:29:06;95544.47;;;11.38
79089;BMP280;68489;50.286;9.452;2024-03-29T12:31:31;95557.03;;;11.38
79089;BMP280;68489;50.286;9.452;2024-03-29T12:33:57;95557.75;;;11.27
79089;BMP280;68489;50.286;9.452;2024-03-29T12:36:24;95544.44;;;11.22
79089;BMP280;68489;50.286;9.452;2024-03-29T12:38:54;95538.38;;;11.10
79089;BMP280;68489;50.286;9.452;2024-03-29T12:41:23;95546.81;;;11.08
79089;BMP280;68489;50.286;9.452;2024-03-29T12:43:50;95554.81;;;11.14
79089;BMP280;68489;50.286;9.452;2024-03-29T12:46:15;95562.31;;;11.16
79089;BMP280;68489;50.286;9.452;2024-03-29T12:48:42;95566.41;;;11.17
79089;BMP280;68489;50.286;9.452;2024-03-29T12:51:07;95579.97;;;11.19
79089;BMP280;68489;50.286;9.452;2024-03-29T12:53:32;95579.47;;;11.20
79089;BMP280;68489;50.286;9.452;2024-03-29T12:55:58;95590.63;;;11.24
79089;BMP280;68489;50.286;9.452;2024-03-29T12:58:24;95596.69;;;11.36
79089;BMP280;68489;50.286;9.452;2024-03-29T13:00:50;95592.81;;;11.37
79089;BMP280;68489;50.286;9.452;2024-03-29T13:03:15;95603.22;;;11.35
79089;BMP280;68489;50.286;9.452;2024-03-29T13:05:41;95603.22;;;11.35
79089;BMP280;68489;50.286;9.452;2024-03-29T13:08:15;95606.13;;;11.37
79089;BMP280;68489;50.286;9.452;2024-03-29T13:10:42;95613.59;;;11.33
79089;BMP280;68489;50.286;9.452;2024-03-29T13:13:08;95611.94;;;11.35
79089;BMP280;68489;50.286;9.452;2024-03-29T13:15:34;95606.63;;;11.41
79089;BMP280;68489;50.286;9.452;2024-03-29T13:18:01;95615.09;;;11.45
79089;BMP280;68489;50.286;9.452;2024-03-29T13:20:26;95622.56;;;11.47
79089;BMP280;68489;50.286;9.452;2024-03-29T13:22:52;95620.91;;;11.44
79089;BMP280;68489;50.286;9.452;2024-03-29T13:25:20;95627.66;;;11.45
79089;BMP280;68489;50.286;9.452;2024-03-29T13:27:47;95644.84;;;11.44
79089;BMP280;68489;50.286;9.452;2024-03-29T13:30:13;95646.78;;;11.43
79089;BMP280;68489;50.286;9.452;2024-03-29T13:32:41;95637.81;;;11.35
79089;BMP280;68489;50.286;9.452;2024-03-29T13:35:08;95642.66;;;11.36
79089;BMP280;68489;50.286;9.452;2024-03-29T13:37:40;95649.63;;;11.34
79089;BMP280;68489;50.286;9.452;2024-03-29T13:40:09;95643.84;;;11.30
79089;BMP280;68489;50.286;9.452;2024-03-29T13:42:38;95651.09;;;11.29
79089;BMP280;68489;50.286;9.452;2024-03-29T13:45:04;95664.88;;;11.28
79089;BMP280;68489;50.286;9.452;2024-03-29T13:47:32;95663.16;;;11.25
79089;BMP280;68489;50.286;9.452;2024-03-29T13:49:58;95671.41;;;11.27
79089;BMP280;68489;50.286;9.452;2024-03-29T13:52:23;95668.47;;;11.25
79089;BMP280;68489;50.286;9.452;2024-03-29T13:54:49;95660.00;;;11.21
79089;BMP280;68489;50.286;9.452;2024-03-29T13:57:16;95652.94;;;11.12
79089;BMP280;68489;50.286;9.452;2024-03-29T13:59:43;95652.69;;;11.04
79089;BMP280;68489;50.286;9.452;2024-03-29T14:02:14;95660.66;;;10.99
79089;BMP280;68489;50.286;9.452;2024-03-29T14:04:43;95658.19;;;10.95
79089;BMP280;68489;50.286;9.452;2024-03-29T14:07:09;95653.59;;;10.90
79089;BMP280;68489;50.286;9.452;2024-03-29T14:09:39;95652.13;;;10.89
79089;BMP280;68489;50.286;9.452;2024-03-29T14:12:05;95642.44;;;10.86
79089;BMP280;68489;50.286;9.452;2024-03-29T14:14:31;95650.94;;;10.90
79089;BMP280;68489;50.286;9.452;2024-03-29T14:16:57;95648.03;;;10.88
79089;BMP280;68489;50.286;9.452;2024-03-29T14:19:22;95648.75;;;10.88